createdAt,value
2018-05-08T00:00:03.091Z,11.2
2018-05-08T00:15:02.360Z,11.7
2018-05-08T00:30:02.760Z,11.7
2018-05-08T00:45:02.992Z,12.2
2018-05-08T01:00:02.199Z,12.5
2018-05-08T01:15:02.465Z,12.6
2018-05-08T01:30:02.808Z,12.8
2018-05-08T01:45:03.021Z,12.8
2018-05-08T02:00:02.283Z,12.1
2018-05-08T02:15:02.624Z,11.8
2018-05-08T02:30:02.898Z,11.4
2018-05-08T02:45:03.212Z,11.2
2018-05-08T03:00:02.535Z,11.2
2018-05-08T03:15:02.778Z,10.8
2018-05-08T03:30:03.161Z,10.4
2018-05-08T03:45:02.607Z,10.1
2018-05-08T04:00:02.922Z,9.8
2018-05-08T04:15:03.271Z,9.9
2018-05-08T04:30:02.668Z,9.9
2018-05-08T04:45:02.888Z,10.1
2018-05-08T05:00:03.206Z,10.4
2018-05-08T05:15:02.476Z,10.8
2018-05-08T05:30:02.800Z,11.1
2018-05-08T05:45:03.065Z,11.7
2018-05-08T06:00:02.423Z,12.8
2018-05-08T06:15:02.904Z,13.6
2018-05-08T06:30:02.351Z,14.1
2018-05-08T06:45:02.597Z,14.5
2018-05-08T07:00:02.910Z,14.8
2018-05-08T07:15:03.125Z,15.2
2018-05-08T07:30:02.511Z,15.5
2018-05-08T07:45:02.771Z,15.9
2018-05-08T08:00:03.088Z,16.8
2018-05-08T08:15:02.410Z,18.2
2018-05-08T08:30:02.783Z,19
2018-05-08T08:45:02.990Z,20.4
2018-05-08T09:00:02.266Z,21.4
2018-05-08T09:15:02.516Z,22.2
2018-05-08T09:30:02.815Z,22.5
2018-05-08T09:45:03.119Z,22.1
2018-05-08T10:00:02.481Z,22.8
2018-05-08T10:15:02.786Z,22.9
2018-05-08T10:30:03.116Z,23.3
2018-05-08T10:45:02.448Z,24.5
2018-05-08T11:00:02.871Z,24.8
2018-05-08T11:15:03.123Z,24.6
2018-05-08T11:30:02.536Z,23.7
2018-05-08T11:45:02.781Z,24.4
2018-05-08T12:00:03.137Z,24.5
2018-05-08T12:15:02.555Z,25.6
2018-05-08T12:30:02.962Z,26.4
2018-05-08T12:45:02.301Z,24.9
2018-05-08T13:00:02.654Z,25.1
2018-05-08T13:15:02.916Z,25.5
2018-05-08T13:30:02.342Z,24.9
2018-05-08T13:45:02.710Z,26.1
2018-05-08T14:00:03.029Z,26.4
2018-05-08T14:15:02.452Z,25
2018-05-08T14:30:02.973Z,25.2
2018-05-08T14:46:17.258Z,25
2018-05-08T15:00:02.589Z,24.8
2018-05-08T15:15:02.807Z,23.6
2018-05-08T15:30:03.195Z,23.1
2018-05-08T15:45:02.515Z,23.2
2018-05-08T16:00:02.868Z,22.8
2018-05-08T16:15:03.087Z,22.4
2018-05-08T16:30:02.505Z,22.1
2018-05-08T16:45:02.887Z,21.4
2018-05-08T17:00:03.120Z,20.8
2018-05-08T17:15:02.527Z,20.2
2018-05-08T17:30:02.918Z,19.8
2018-05-08T17:45:03.192Z,19.6
2018-05-08T18:00:02.573Z,19.2
2018-05-08T18:15:02.918Z,18.8
2018-05-08T18:30:02.305Z,18.6
2018-05-08T18:45:02.699Z,18.2
2018-05-08T19:00:02.967Z,17.6
2018-05-08T19:15:02.337Z,17.2
2018-05-08T19:30:02.718Z,16.9
2018-05-08T19:45:02.919Z,16.4
2018-05-08T20:00:02.386Z,15.8
2018-05-08T20:15:02.666Z,15.8
2018-05-08T20:30:03.065Z,16.6
2018-05-08T20:45:02.370Z,16.7
2018-05-08T21:00:02.664Z,16.4
2018-05-08T21:15:02.916Z,16.2
2018-05-08T21:30:02.270Z,16.1
2018-05-08T21:45:02.588Z,15.8
2018-05-08T22:00:02.922Z,15.5
2018-05-08T22:15:03.141Z,15.4
2018-05-08T22:30:02.491Z,15.2
2018-05-08T22:45:02.870Z,14.9
2018-05-08T23:00:03.122Z,14.7
2018-05-08T23:15:02.493Z,14.6
2018-05-08T23:30:02.826Z,14.4
2018-05-08T23:45:03.185Z,14.1
